Time;durP1;ratioP1;P1;durP2;ratioP2;P2;SDS_P1;SDS_P2;PMS_P1;PMS_P2;Temp;Humidity;BMP_temperature;BMP_pressure;BME280_temperature;BME280_humidity;BME280_pressure;Samples;Min_cycle;Max_cycle;Signal;HPM_P1;HPM_P2
2021/12/22 00:01:05;;;;;;;;;50.33;39.00;;;;;;;;4956589;28;45574;-78
2021/12/22 00:03:31;;;;;;;;;50.00;41.75;;;;;;;;4967643;28;45492;-78
2021/12/22 00:05:56;;;;;;;;;53.75;40.25;;;;;;;;4967287;27;45462;-78
2021/12/22 00:08:22;;;;;;;;;60.00;43.33;;;;;;;;4958354;28;45554;-78
2021/12/22 00:10:49;;;;;;;;;52.00;38.50;;;;;;;;4956047;28;45531;-78
2021/12/22 00:13:14;;;;;;;;;51.50;42.00;;;;;;;;4957642;28;45530;-78
2021/12/22 00:15:39;;;;;;;;;49.67;40.67;;;;;;;;4957617;28;46180;-78
2021/12/22 00:18:05;;;;;;;;;52.67;42.00;;;;;;;;4958461;28;45783;-78
2021/12/22 00:20:31;;;;;;;;;49.50;39.50;;;;;;;;4961705;28;45548;-78
2021/12/22 00:22:56;;;;;;;;;48.25;39.75;;;;;;;;4971504;28;45436;-78
2021/12/22 00:25:25;;;;;;;;;45.00;34.50;;;;;;;;4969205;28;46262;-78
2021/12/22 00:27:50;;;;;;;;;43.75;39.25;;;;;;;;4971910;28;45409;-77
2021/12/22 00:30:16;;;;;;;;;56.00;40.50;;;;;;;;4974703;28;45447;-78
2021/12/22 00:32:49;;;;;;;;;56.33;43.00;;;;;;;;4969630;28;45524;-77
2021/12/22 00:35:14;;;;;;;;;52.25;42.25;;;;;;;;4964892;28;45371;-78
2021/12/22 00:37:39;;;;;;;;;60.33;42.00;;;;;;;;4965758;28;45521;-78
2021/12/22 00:40:05;;;;;;;;;56.00;43.33;;;;;;;;4957332;28;45397;-78
2021/12/22 00:42:30;;;;;;;;;55.75;41.00;;;;;;;;4957872;28;45589;-78
2021/12/22 00:44:55;;;;;;;;;46.00;39.33;;;;;;;;4957413;28;45497;-78
2021/12/22 00:47:22;;;;;;;;;56.25;43.25;;;;;;;;4956999;28;45513;-78
2021/12/22 00:49:47;;;;;;;;;51.50;40.75;;;;;;;;4959088;28;45471;-78
2021/12/22 00:52:13;;;;;;;;;60.00;38.00;;;;;;;;4968526;28;45491;-78
2021/12/22 00:54:38;;;;;;;;;63.25;42.75;;;;;;;;4967702;28;48379;-79
2021/12/22 00:57:05;;;;;;;;;47.25;38.50;;;;;;;;4964746;28;45429;-78
2021/12/22 00:59:32;;;;;;;;;48.75;40.25;;;;;;;;4969215;28;45427;-79
2021/12/22 01:01:57;;;;;;;;;60.50;43.75;;;;;;;;4954467;28;45507;-78
2021/12/22 01:04:23;;;;;;;;;49.33;39.00;;;;;;;;4961360;28;45648;-78
2021/12/22 01:06:48;;;;;;;;;49.33;36.67;;;;;;;;4963792;28;46287;-78
2021/12/22 01:09:13;;;;;;;;;39.33;31.33;;;;;;;;4956254;28;45550;-78
2021/12/22 01:11:38;;;;;;;;;47.33;33.33;;;;;;;;4968912;28;45599;-78
2021/12/22 01:14:04;;;;;;;;;43.67;34.67;;;;;;;;4968904;28;45634;-78
2021/12/22 01:16:30;;;;;;;;;46.75;34.00;;;;;;;;4966329;28;45443;-78
2021/12/22 01:18:58;;;;;;;;;49.50;35.50;;;;;;;;4975630;28;45474;-78
2021/12/22 01:21:48;;;;;;;;;39.25;33.75;;;;;;;;4972701;28;45660;-78
2021/12/22 01:24:28;;;;;;;;;45.25;39.00;;;;;;;;4966981;28;46060;-78
2021/12/22 01:27:03;;;;;;;;;52.25;36.00;;;;;;;;4963965;28;45674;-78
2021/12/22 01:29:28;;;;;;;;;48.25;36.00;;;;;;;;4963660;28;45506;-78
2021/12/22 01:31:56;;;;;;;;;44.33;37.00;;;;;;;;4967952;28;45385;-78
2021/12/22 01:34:21;;;;;;;;;57.00;41.75;;;;;;;;4978301;28;46434;-78
2021/12/22 01:36:46;;;;;;;;;46.33;34.67;;;;;;;;4960498;28;45608;-78
2021/12/22 01:39:11;;;;;;;;;45.33;34.00;;;;;;;;4960115;28;45545;-78
2021/12/22 01:41:37;;;;;;;;;54.00;39.00;;;;;;;;4968452;28;45482;-78
2021/12/22 01:44:02;;;;;;;;;44.33;35.33;;;;;;;;4967757;28;46639;-79
2021/12/22 01:49:16;;;;;;;;;50.50;38.25;;;;;;;;4968135;28;46373;-78
2021/12/22 01:51:47;;;;;;;;;48.50;33.75;;;;;;;;4961085;28;45986;-78
2021/12/22 01:54:27;;;;;;;;;45.50;35.25;;;;;;;;4958639;28;46446;-78
2021/12/22 01:56:53;;;;;;;;;50.75;37.00;;;;;;;;4968185;28;45515;-78
2021/12/22 01:59:22;;;;;;;;;47.25;34.25;;;;;;;;4953275;28;45788;-78
2021/12/22 02:01:47;;;;;;;;;39.75;33.25;;;;;;;;4963759;28;45505;-78
2021/12/22 02:04:13;;;;;;;;;47.25;36.25;;;;;;;;4957936;28;46488;-78
2021/12/22 02:06:42;;;;;;;;;52.50;36.50;;;;;;;;4958715;28;45767;-78
2021/12/22 02:09:10;;;;;;;;;49.50;36.75;;;;;;;;4964700;28;45557;-78
2021/12/22 02:11:35;;;;;;;;;50.75;37.75;;;;;;;;4982888;28;45607;-78
2021/12/22 02:14:04;;;;;;;;;45.75;33.00;;;;;;;;4966727;28;46453;-77
2021/12/22 02:16:33;;;;;;;;;48.75;37.00;;;;;;;;4965381;28;45588;-78
2021/12/22 02:19:00;;;;;;;;;43.75;34.00;;;;;;;;4964978;28;45833;-78
2021/12/22 02:21:29;;;;;;;;;52.75;38.25;;;;;;;;4957609;28;45463;-77
2021/12/22 02:23:54;;;;;;;;;51.50;39.25;;;;;;;;4965067;28;45521;-77
2021/12/22 02:26:25;;;;;;;;;51.75;41.75;;;;;;;;4968680;28;45445;-78
2021/12/22 02:28:59;;;;;;;;;44.50;36.00;;;;;;;;4966740;28;45399;-78
2021/12/22 02:31:25;;;;;;;;;53.00;40.50;;;;;;;;4964977;28;45992;-78
2021/12/22 02:33:51;;;;;;;;;46.25;39.00;;;;;;;;4964251;28;46348;-77
2021/12/22 02:38:43;;;;;;;;;41.75;32.50;;;;;;;;4967015;28;45745;-78
2021/12/22 02:41:12;;;;;;;;;54.00;38.50;;;;;;;;4963643;28;45523;-78
2021/12/22 02:43:45;;;;;;;;;41.50;36.25;;;;;;;;4968949;28;46485;-77
2021/12/22 02:46:10;;;;;;;;;44.00;34.50;;;;;;;;4964271;28;48392;-78
2021/12/22 02:48:35;;;;;;;;;47.25;38.75;;;;;;;;4968138;28;45654;-78
2021/12/22 02:51:02;;;;;;;;;56.00;32.00;;;;;;;;4962955;28;45653;-78
2021/12/22 02:53:40;;;;;;;;;44.25;30.75;;;;;;;;4968424;28;45619;-78
2021/12/22 03:04:05;;;;;;;;;43.25;35.75;;;;;;;;4964118;28;46244;-77
2021/12/22 03:08:55;;;;;;;;;44.33;33.67;;;;;;;;4957024;28;45552;-78
2021/12/22 03:11:20;;;;;;;;;39.67;31.33;;;;;;;;4966145;28;45435;-78
2021/12/22 03:13:46;;;;;;;;;34.25;26.50;;;;;;;;4954874;28;45867;-77
2021/12/22 03:16:11;;;;;;;;;45.67;28.33;;;;;;;;4962370;28;45626;-78
2021/12/22 03:18:36;;;;;;;;;47.00;31.33;;;;;;;;4966401;28;45556;-78
2021/12/22 03:21:15;;;;;;;;;47.25;32.25;;;;;;;;4952590;28;45622;-78
2021/12/22 03:23:40;;;;;;;;;31.50;29.25;;;;;;;;4968098;28;45979;-78
2021/12/22 03:26:05;;;;;;;;;47.67;32.67;;;;;;;;4962485;28;45359;-78
2021/12/22 03:28:31;;;;;;;;;52.67;32.33;;;;;;;;4964843;28;45402;-78
2021/12/22 03:30:59;;;;;;;;;46.75;33.50;;;;;;;;4957534;28;45414;-77
2021/12/22 03:33:24;;;;;;;;;45.00;31.75;;;;;;;;4955993;28;46190;-77
2021/12/22 03:35:49;;;;;;;;;41.33;31.00;;;;;;;;4952112;28;45419;-78
2021/12/22 03:38:14;;;;;;;;;42.33;35.67;;;;;;;;4970580;28;45612;-78
2021/12/22 03:40:40;;;;;;;;;46.33;32.67;;;;;;;;4965202;28;45350;-78
2021/12/22 03:43:05;;;;;;;;;42.67;34.00;;;;;;;;4961533;28;46630;-78
2021/12/22 03:45:30;;;;;;;;;46.67;33.33;;;;;;;;4965354;28;45627;-78
2021/12/22 03:47:55;;;;;;;;;42.33;36.00;;;;;;;;4966101;28;45514;-78
2021/12/22 03:50:20;;;;;;;;;39.33;31.33;;;;;;;;4967038;28;45737;-78
2021/12/22 03:52:47;;;;;;;;;53.33;35.00;;;;;;;;4965911;28;46038;-78
2021/12/22 03:55:13;;;;;;;;;38.25;28.25;;;;;;;;4952749;28;45729;-77
2021/12/22 03:57:38;;;;;;;;;42.25;32.75;;;;;;;;4957449;28;45394;-78
2021/12/22 04:00:05;;;;;;;;;41.33;30.00;;;;;;;;4964845;28;45493;-78
2021/12/22 04:02:30;;;;;;;;;48.75;32.75;;;;;;;;4986107;27;47376;-78
2021/12/22 04:04:56;;;;;;;;;55.67;37.33;;;;;;;;4957823;28;45426;-78
2021/12/22 04:07:21;;;;;;;;;41.50;32.00;;;;;;;;4966641;28;45345;-78
2021/12/22 04:09:47;;;;;;;;;37.00;33.67;;;;;;;;4965336;28;45451;-78
2021/12/22 04:12:12;;;;;;;;;42.00;34.00;;;;;;;;4965410;28;47290;-78
2021/12/22 04:14:37;;;;;;;;;43.33;33.33;;;;;;;;4969678;28;45498;-78
2021/12/22 04:17:02;;;;;;;;;48.00;34.00;;;;;;;;4968795;28;45431;-78
2021/12/22 04:19:28;;;;;;;;;51.50;35.00;;;;;;;;4976866;28;45546;-77
2021/12/22 04:21:53;;;;;;;;;46.33;32.33;;;;;;;;4966107;28;46043;-78
2021/12/22 04:24:18;;;;;;;;;47.00;32.67;;;;;;;;4966704;28;45474;-77
2021/12/22 04:26:44;;;;;;;;;42.00;28.50;;;;;;;;4964731;28;45495;-78
2021/12/22 04:29:12;;;;;;;;;40.33;35.33;;;;;;;;4970381;28;45466;-78
2021/12/22 04:31:38;;;;;;;;;37.50;28.75;;;;;;;;4964690;28;48178;-77
2021/12/22 04:34:07;;;;;;;;;40.50;28.00;;;;;;;;4968000;28;45952;-77
2021/12/22 04:36:33;;;;;;;;;40.00;28.50;;;;;;;;4965864;28;45447;-77
2021/12/22 04:38:59;;;;;;;;;42.00;32.00;;;;;;;;4960256;28;45595;-77
2021/12/22 04:41:24;;;;;;;;;35.75;31.00;;;;;;;;4970295;28;46741;-78
2021/12/22 04:43:50;;;;;;;;;46.33;36.33;;;;;;;;4967803;28;45574;-77
2021/12/22 04:46:15;;;;;;;;;46.67;29.00;;;;;;;;4958809;28;45536;-77
2021/12/22 04:48:40;;;;;;;;;46.00;37.00;;;;;;;;4964317;28;45585;-78
2021/12/22 04:51:13;;;;;;;;;49.00;34.00;;;;;;;;4985071;27;45711;-78
2021/12/22 04:53:48;;;;;;;;;43.75;31.25;;;;;;;;4964046;28;45641;-77
2021/12/22 04:56:14;;;;;;;;;47.25;31.50;;;;;;;;4967436;28;45537;-77
2021/12/22 04:58:39;;;;;;;;;35.00;31.00;;;;;;;;4968145;28;45544;-77
2021/12/22 05:01:04;;;;;;;;;40.67;32.67;;;;;;;;4959594;28;47181;-77
2021/12/22 05:03:29;;;;;;;;;39.00;28.00;;;;;;;;4981611;28;46294;-78
2021/12/22 05:05:55;;;;;;;;;44.00;30.00;;;;;;;;4967123;28;45457;-77
2021/12/22 05:08:20;;;;;;;;;40.00;32.33;;;;;;;;4969474;28;45558;-78
2021/12/22 05:10:45;;;;;;;;;40.33;29.33;;;;;;;;4967607;28;46036;-78
2021/12/22 05:13:10;;;;;;;;;46.00;31.33;;;;;;;;4965452;28;45655;-78
2021/12/22 05:15:38;;;;;;;;;38.00;32.67;;;;;;;;4964378;28;45839;-77
2021/12/22 05:18:25;;;;;;;;;51.25;38.00;;;;;;;;4964133;28;45500;-77
2021/12/22 05:20:51;;;;;;;;;46.25;32.00;;;;;;;;4964615;28;48115;-78
2021/12/22 05:23:17;;;;;;;;;37.00;28.00;;;;;;;;4960754;28;45372;-78
2021/12/22 05:25:43;;;;;;;;;34.75;27.75;;;;;;;;4956968;28;45450;-77
2021/12/22 05:28:08;;;;;;;;;41.75;33.00;;;;;;;;4964654;28;45356;-77
2021/12/22 05:30:33;;;;;;;;;39.33;32.00;;;;;;;;4964104;28;45436;-79
2021/12/22 05:32:58;;;;;;;;;46.00;34.00;;;;;;;;4968066;28;45542;-77
2021/12/22 05:35:23;;;;;;;;;53.00;36.33;;;;;;;;4969411;28;45327;-78
2021/12/22 05:37:49;;;;;;;;;46.00;32.67;;;;;;;;4954430;28;45750;-77
2021/12/22 05:40:15;;;;;;;;;52.25;35.00;;;;;;;;4964387;28;45497;-77
2021/12/22 05:42:42;;;;;;;;;48.25;37.75;;;;;;;;4961634;28;45494;-78
2021/12/22 05:45:07;;;;;;;;;37.75;32.25;;;;;;;;4966083;28;46005;-77
2021/12/22 05:47:32;;;;;;;;;42.00;29.00;;;;;;;;4957118;28;45492;-77
2021/12/22 05:49:58;;;;;;;;;42.67;31.67;;;;;;;;4967519;28;46014;-78
2021/12/22 05:52:23;;;;;;;;;37.33;29.00;;;;;;;;4957338;28;45800;-77
2021/12/22 05:54:49;;;;;;;;;41.75;34.50;;;;;;;;4960201;28;45479;-78
2021/12/22 05:57:15;;;;;;;;;39.25;31.75;;;;;;;;4965346;28;45541;-77
2021/12/22 05:59:40;;;;;;;;;46.25;36.50;;;;;;;;4967796;28;48196;-78
2021/12/22 06:02:05;;;;;;;;;42.33;34.33;;;;;;;;4965246;28;45807;-78
2021/12/22 06:04:30;;;;;;;;;42.33;33.33;;;;;;;;4956840;28;45374;-77
2021/12/22 06:06:55;;;;;;;;;47.00;34.33;;;;;;;;4960974;28;45442;-77
2021/12/22 06:09:21;;;;;;;;;40.67;34.00;;;;;;;;4962586;28;45541;-78
2021/12/22 06:11:46;;;;;;;;;52.33;37.33;;;;;;;;4952424;28;45458;-78
2021/12/22 06:14:11;;;;;;;;;34.00;29.67;;;;;;;;4968457;28;45305;-77
2021/12/22 06:16:36;;;;;;;;;49.00;39.33;;;;;;;;4966525;28;45484;-77
2021/12/22 06:19:05;;;;;;;;;33.00;28.00;;;;;;;;4964978;28;46468;-78
2021/12/22 06:21:31;;;;;;;;;42.75;34.75;;;;;;;;4959181;28;46138;-78
2021/12/22 06:23:56;;;;;;;;;37.00;29.25;;;;;;;;4954014;28;45625;-77
2021/12/22 06:26:22;;;;;;;;;38.50;33.00;;;;;;;;4968104;28;45446;-77
2021/12/22 06:28:47;;;;;;;;;45.75;35.00;;;;;;;;4955982;28;48320;-78
2021/12/22 06:31:12;;;;;;;;;48.00;38.67;;;;;;;;4971461;27;45752;-77
2021/12/22 06:33:39;;;;;;;;;40.25;33.00;;;;;;;;4965640;28;45606;-78
2021/12/22 06:36:04;;;;;;;;;42.25;35.25;;;;;;;;4964366;28;45487;-78
2021/12/22 06:38:29;;;;;;;;;39.67;33.00;;;;;;;;4969459;28;45918;-78
2021/12/22 06:40:55;;;;;;;;;39.33;31.67;;;;;;;;4967069;28;45378;-77
2021/12/22 06:43:20;;;;;;;;;52.67;39.00;;;;;;;;4963890;28;45437;-78
2021/12/22 06:45:46;;;;;;;;;50.67;36.33;;;;;;;;4964276;28;45354;-78
2021/12/22 06:48:11;;;;;;;;;60.75;37.00;;;;;;;;4964682;28;45522;-77
2021/12/22 06:50:36;;;;;;;;;47.00;36.33;;;;;;;;4967703;28;45633;-77
2021/12/22 06:53:02;;;;;;;;;46.33;40.33;;;;;;;;4967813;28;45376;-77
2021/12/22 06:55:27;;;;;;;;;64.75;43.00;;;;;;;;4957685;28;45468;-77
2021/12/22 06:57:53;;;;;;;;;49.00;37.75;;;;;;;;4956860;28;46023;-77
2021/12/22 07:00:18;;;;;;;;;48.75;32.75;;;;;;;;4956123;28;45557;-78
2021/12/22 07:02:44;;;;;;;;;45.25;34.00;;;;;;;;4963533;28;45448;-77
2021/12/22 07:05:10;;;;;;;;;56.33;39.33;;;;;;;;4960579;28;45435;-78
2021/12/22 07:07:35;;;;;;;;;63.75;39.25;;;;;;;;4966466;28;46317;-77
2021/12/22 07:10:01;;;;;;;;;55.25;35.00;;;;;;;;4968657;28;45487;-77
2021/12/22 07:12:26;;;;;;;;;46.67;33.33;;;;;;;;4963519;28;45564;-77
2021/12/22 07:14:51;;;;;;;;;38.75;30.50;;;;;;;;4969911;28;45420;-77
2021/12/22 07:17:17;;;;;;;;;31.67;22.00;;;;;;;;4952655;28;45418;-77
2021/12/22 07:19:42;;;;;;;;;56.33;35.67;;;;;;;;4969801;28;45527;-78
2021/12/22 07:22:07;;;;;;;;;54.67;36.67;;;;;;;;4956114;28;45527;-77
2021/12/22 07:24:33;;;;;;;;;42.00;34.67;;;;;;;;4961486;28;45381;-77
2021/12/22 07:26:58;;;;;;;;;55.00;38.50;;;;;;;;4966139;28;46126;-78
2021/12/22 07:29:23;;;;;;;;;46.75;33.75;;;;;;;;4951649;28;45497;-78
2021/12/22 07:31:48;;;;;;;;;44.00;36.33;;;;;;;;4954916;28;45273;-77
2021/12/22 07:34:24;;;;;;;;;45.33;36.33;;;;;;;;4977617;28;45430;-77
2021/12/22 07:36:55;;;;;;;;;56.75;40.25;;;;;;;;4974580;28;45563;-77
2021/12/22 07:39:20;;;;;;;;;49.25;36.25;;;;;;;;4966911;28;45514;-78
2021/12/22 07:41:46;;;;;;;;;51.67;40.33;;;;;;;;4968180;28;45520;-77
2021/12/22 07:44:11;;;;;;;;;58.00;40.00;;;;;;;;4971218;28;45503;-77
2021/12/22 07:46:36;;;;;;;;;56.67;37.33;;;;;;;;4965971;28;46212;-78
2021/12/22 07:49:02;;;;;;;;;49.00;35.67;;;;;;;;4970876;28;45600;-78
2021/12/22 07:51:27;;;;;;;;;45.50;33.00;;;;;;;;4960568;28;45523;-78
2021/12/22 07:53:52;;;;;;;;;36.75;32.25;;;;;;;;4962910;28;45432;-77
2021/12/22 07:56:17;;;;;;;;;38.00;32.67;;;;;;;;4969465;28;45852;-77
2021/12/22 07:58:43;;;;;;;;;32.67;17.33;;;;;;;;4969753;28;45619;-78
2021/12/22 08:01:08;;;;;;;;;36.67;30.00;;;;;;;;4966617;28;45383;-77
2021/12/22 08:03:33;;;;;;;;;52.67;32.33;;;;;;;;4965039;28;45485;-77
2021/12/22 08:05:58;;;;;;;;;41.25;29.50;;;;;;;;4968756;28;48326;-77
2021/12/22 08:08:24;;;;;;;;;40.67;31.67;;;;;;;;4968413;28;45877;-78
2021/12/22 08:10:49;;;;;;;;;47.00;35.33;;;;;;;;4964982;28;46205;-78
2021/12/22 08:13:15;;;;;;;;;48.75;36.50;;;;;;;;4962308;28;45494;-78
2021/12/22 08:15:41;;;;;;;;;42.25;28.25;;;;;;;;4968948;28;45585;-78
2021/12/22 08:18:06;;;;;;;;;56.25;34.50;;;;;;;;4967190;28;46056;-77
2021/12/22 08:20:32;;;;;;;;;40.00;33.33;;;;;;;;4968066;28;45605;-77
2021/12/22 08:22:57;;;;;;;;;43.33;31.00;;;;;;;;4958144;28;45466;-77
2021/12/22 08:25:22;;;;;;;;;36.33;29.67;;;;;;;;4959605;28;45496;-77
2021/12/22 08:27:47;;;;;;;;;43.33;32.00;;;;;;;;4960877;28;46043;-77
2021/12/22 08:30:13;;;;;;;;;42.33;32.33;;;;;;;;4967057;28;45497;-77
2021/12/22 08:32:38;;;;;;;;;40.50;32.00;;;;;;;;4960879;28;45380;-77
2021/12/22 08:35:06;;;;;;;;;35.00;28.00;;;;;;;;4962667;28;46135;-78
2021/12/22 08:40:17;;;;;;;;;44.75;33.25;;;;;;;;4957168;28;45969;-77
2021/12/22 08:42:43;;;;;;;;;51.67;35.33;;;;;;;;4956907;28;45636;-78
2021/12/22 08:45:08;;;;;;;;;45.50;38.25;;;;;;;;4958034;28;45604;-77
2021/12/22 08:47:33;;;;;;;;;48.25;37.50;;;;;;;;4954244;28;45456;-77
2021/12/22 08:49:59;;;;;;;;;61.33;41.00;;;;;;;;4956023;28;45522;-79
2021/12/22 08:52:24;;;;;;;;;39.00;30.33;;;;;;;;4962518;28;45671;-77
2021/12/22 08:54:49;;;;;;;;;40.33;36.67;;;;;;;;4964878;28;45500;-78
2021/12/22 08:57:14;;;;;;;;;60.00;40.33;;;;;;;;4964443;28;45437;-77
2021/12/22 08:59:40;;;;;;;;;41.75;33.50;;;;;;;;4973934;28;45579;-77
2021/12/22 09:02:05;;;;;;;;;49.33;34.33;;;;;;;;4963615;28;45392;-77
2021/12/22 09:04:30;;;;;;;;;51.00;39.33;;;;;;;;4964201;28;47654;-77
2021/12/22 09:06:56;;;;;;;;;55.25;36.50;;;;;;;;4965288;28;45662;-77
2021/12/22 09:09:21;;;;;;;;;47.33;36.67;;;;;;;;4966179;28;45623;-77
2021/12/22 09:11:47;;;;;;;;;50.25;38.50;;;;;;;;4959394;28;45521;-76
2021/12/22 09:14:13;;;;;;;;;45.00;33.75;;;;;;;;4968408;28;46625;-77
2021/12/22 09:16:39;;;;;;;;;52.00;38.67;;;;;;;;4967399;28;45450;-77
2021/12/22 09:19:05;;;;;;;;;52.75;37.00;;;;;;;;4969406;28;45561;-77
2021/12/22 09:21:30;;;;;;;;;48.00;35.75;;;;;;;;4965492;28;45474;-77
2021/12/22 09:23:56;;;;;;;;;47.00;38.50;;;;;;;;4966361;28;46200;-77
2021/12/22 09:26:21;;;;;;;;;46.33;37.00;;;;;;;;4961228;28;45440;-77
2021/12/22 09:28:46;;;;;;;;;49.00;38.00;;;;;;;;4961749;28;45526;-77
2021/12/22 09:31:12;;;;;;;;;58.67;36.67;;;;;;;;4963008;28;45589;-76
2021/12/22 09:33:38;;;;;;;;;44.50;35.50;;;;;;;;4958526;28;45773;-76
2021/12/22 09:36:04;;;;;;;;;56.25;40.50;;;;;;;;4969770;28;45485;-77
2021/12/22 09:38:29;;;;;;;;;60.50;42.75;;;;;;;;4954453;28;45288;-77
2021/12/22 09:40:55;;;;;;;;;51.67;39.67;;;;;;;;4967158;28;45532;-77
2021/12/22 09:43:20;;;;;;;;;56.00;38.67;;;;;;;;4964756;28;46632;-77
2021/12/22 09:45:50;;;;;;;;;52.33;41.00;;;;;;;;4965129;28;45521;-77
2021/12/22 09:48:52;;;;;;;;;48.50;35.25;;;;;;;;4965770;28;45541;-77
2021/12/22 09:53:37;;;;;;;;;53.00;39.50;;;;;;;;4955438;28;46206;-77
2021/12/22 09:56:02;;;;;;;;;52.25;34.75;;;;;;;;4966808;28;45864;-77
2021/12/22 09:58:28;;;;;;;;;53.00;35.00;;;;;;;;4978243;28;46235;-77
2021/12/22 10:00:54;;;;;;;;;51.50;40.75;;;;;;;;4961034;28;45728;-78
2021/12/22 10:03:21;;;;;;;;;54.75;37.00;;;;;;;;4956510;28;46388;-81
2021/12/22 10:05:46;;;;;;;;;54.25;37.75;;;;;;;;4953982;28;46203;-79
2021/12/22 10:08:11;;;;;;;;;49.33;37.33;;;;;;;;4953335;28;45699;-79
2021/12/22 10:10:38;;;;;;;;;46.00;35.00;;;;;;;;4986617;28;45363;-79
2021/12/22 10:13:08;;;;;;;;;51.50;35.50;;;;;;;;4964378;28;45533;-77
2021/12/22 10:15:35;;;;;;;;;48.25;35.25;;;;;;;;4967041;28;45660;-77
2021/12/22 10:18:08;;;;;;;;;49.00;37.50;;;;;;;;4960557;28;46257;-78
2021/12/22 10:20:33;;;;;;;;;56.75;38.75;;;;;;;;4966119;28;45431;-77
2021/12/22 10:22:59;;;;;;;;;46.50;38.25;;;;;;;;4971226;28;45330;-77
2021/12/22 10:25:31;;;;;;;;;55.00;41.00;;;;;;;;4966412;28;45257;-76
2021/12/22 10:28:00;;;;;;;;;56.25;38.50;;;;;;;;4964894;28;45569;-78
2021/12/22 10:30:31;;;;;;;;;48.50;37.00;;;;;;;;4963740;28;45408;-77
2021/12/22 10:33:12;;;;;;;;;56.25;38.75;;;;;;;;4963084;28;46665;-78
2021/12/22 10:35:39;;;;;;;;;49.00;35.50;;;;;;;;4964755;28;45777;-78
2021/12/22 10:38:05;;;;;;;;;62.25;41.25;;;;;;;;4967795;28;45575;-77
2021/12/22 10:40:31;;;;;;;;;39.25;32.25;;;;;;;;4965350;28;45651;-77
2021/12/22 10:42:57;;;;;;;;;52.67;39.00;;;;;;;;4957057;28;45504;-79
2021/12/22 10:45:23;;;;;;;;;53.75;37.75;;;;;;;;4956331;28;45636;-77
2021/12/22 10:50:42;;;;;;;;;54.50;40.25;;;;;;;;4958557;28;45589;-77
2021/12/22 10:53:09;;;;;;;;;62.75;42.00;;;;;;;;4964414;28;45783;-77
2021/12/22 10:55:37;;;;;;;;;55.50;36.75;;;;;;;;4959883;28;45773;-77
2021/12/22 10:58:13;;;;;;;;;55.00;41.00;;;;;;;;4964470;28;45652;-78
2021/12/22 11:00:38;;;;;;;;;60.25;38.25;;;;;;;;4968779;28;45478;-76
2021/12/22 11:03:05;;;;;;;;;50.67;38.00;;;;;;;;4965806;28;47372;-77
2021/12/22 11:05:30;;;;;;;;;51.50;36.25;;;;;;;;4966156;28;45906;-76
2021/12/22 11:07:57;;;;;;;;;42.67;33.33;;;;;;;;4965879;28;45565;-77
2021/12/22 11:10:29;;;;;;;;;39.00;31.25;;;;;;;;4956462;28;45506;-76
2021/12/22 11:13:03;;;;;;;;;55.50;38.50;;;;;;;;4964696;28;48685;-78
2021/12/22 11:15:28;;;;;;;;;49.25;39.50;;;;;;;;4971797;28;45762;-77
2021/12/22 11:17:54;;;;;;;;;52.25;36.50;;;;;;;;4965572;28;45593;-77
2021/12/22 11:20:22;;;;;;;;;50.00;38.33;;;;;;;;4999585;28;45538;-77
2021/12/22 11:23:21;;;;;;;;;55.50;38.50;;;;;;;;4966468;28;45695;-77
2021/12/22 11:25:40;;;;;;;;;54.75;40.00;;;;;;;;4958272;28;47332;-79
2021/12/22 11:28:06;;;;;;;;;55.75;38.75;;;;;;;;4960618;28;45525;-78
2021/12/22 11:30:31;;;;;;;;;58.75;40.25;;;;;;;;4964240;28;45865;-77
2021/12/22 11:32:56;;;;;;;;;55.50;41.50;;;;;;;;4964038;28;47284;-77
2021/12/22 11:35:22;;;;;;;;;60.00;32.00;;;;;;;;4978157;28;46248;-77
2021/12/22 11:37:48;;;;;;;;;55.50;41.50;;;;;;;;4955142;28;45452;-78
2021/12/22 11:40:17;;;;;;;;;57.25;40.50;;;;;;;;4955870;28;45501;-78
2021/12/22 11:42:42;;;;;;;;;55.75;39.75;;;;;;;;4956495;28;45592;-77
2021/12/22 11:45:12;;;;;;;;;49.25;35.00;;;;;;;;4964808;28;45375;-79
2021/12/22 11:47:39;;;;;;;;;46.75;36.00;;;;;;;;4967212;28;45798;-79
2021/12/22 11:50:06;;;;;;;;;58.50;41.00;;;;;;;;4966607;28;45619;-78
2021/12/22 11:52:36;;;;;;;;;44.75;36.75;;;;;;;;4964561;28;47103;-79
2021/12/22 11:55:09;;;;;;;;;59.50;39.00;;;;;;;;4997325;28;45929;-79
2021/12/22 11:57:34;;;;;;;;;53.25;38.25;;;;;;;;4986921;27;46467;-79
2021/12/22 12:00:18;;;;;;;;;50.75;38.50;;;;;;;;4957064;28;45853;-80
2021/12/22 12:02:44;;;;;;;;;57.75;41.25;;;;;;;;4961380;28;46252;-80
2021/12/22 12:05:14;;;;;;;;;60.50;41.00;;;;;;;;4972952;28;45473;-79
2021/12/22 12:07:41;;;;;;;;;57.50;41.25;;;;;;;;4960082;28;45451;-79
2021/12/22 12:10:32;;;;;;;;;60.50;42.00;;;;;;;;4961309;28;45304;-79
2021/12/22 12:13:04;;;;;;;;;50.75;42.00;;;;;;;;4960908;28;45485;-78
2021/12/22 12:21:36;;;;;;;;;51.75;38.75;;;;;;;;4961863;28;51184;-78
2021/12/22 12:21:56;;;;;;;;;50.00;39.50;;;;;;;;4928354;28;45686;-75
2021/12/22 12:24:30;;;;;;;;;47.00;39.25;;;;;;;;4928732;28;46889;-78
2021/12/22 12:26:55;;;;;;;;;54.50;40.00;;;;;;;;4931218;28;45871;-79
2021/12/22 12:29:41;;;;;;;;;57.00;44.50;;;;;;;;4904674;28;45741;-78
2021/12/22 12:32:06;;;;;;;;;57.25;42.75;;;;;;;;4935390;28;46749;-78
2021/12/22 12:34:32;;;;;;;;;56.50;40.50;;;;;;;;4928860;28;47703;-79
2021/12/22 12:36:57;;;;;;;;;49.00;40.00;;;;;;;;4928635;28;45423;-79
2021/12/22 12:39:41;;;;;;;;;48.67;37.33;;;;;;;;4928616;28;45988;-78
2021/12/22 12:42:06;;;;;;;;;54.25;41.75;;;;;;;;4928769;28;45717;-79
2021/12/22 12:44:32;;;;;;;;;47.67;37.67;;;;;;;;4928937;28;46636;-79
2021/12/22 12:46:57;;;;;;;;;52.50;41.00;;;;;;;;4927089;28;46286;-79
2021/12/22 12:49:22;;;;;;;;;55.00;39.33;;;;;;;;4928998;28;45363;-77
2021/12/22 12:51:57;;;;;;;;;53.33;40.33;;;;;;;;4929031;28;45428;-78
2021/12/22 12:54:24;;;;;;;;;49.25;38.25;;;;;;;;4909399;28;45553;-78
2021/12/22 12:56:55;;;;;;;;;58.25;44.25;;;;;;;;4961962;28;45945;-78
2021/12/22 12:59:28;;;;;;;;;62.25;43.00;;;;;;;;4966688;28;45664;-78
2021/12/22 13:01:56;;;;;;;;;55.00;40.75;;;;;;;;4967693;28;45562;-79
2021/12/22 13:04:29;;;;;;;;;53.50;39.50;;;;;;;;4975450;28;45552;-78
2021/12/22 13:07:14;;;;;;;;;52.50;42.00;;;;;;;;4961789;28;45619;-78
2021/12/22 13:09:43;;;;;;;;;57.00;40.00;;;;;;;;4966402;28;45638;-78
2021/12/22 13:12:16;;;;;;;;;64.75;43.75;;;;;;;;4960545;28;46505;-80
2021/12/22 13:17:28;;;;;;;;;64.50;44.25;;;;;;;;4956252;28;45481;-79
2021/12/22 13:19:55;;;;;;;;;60.25;42.25;;;;;;;;4959925;28;45657;-78
2021/12/22 13:22:24;;;;;;;;;60.50;42.50;;;;;;;;4956684;28;45627;-81
2021/12/22 13:25:05;;;;;;;;;58.50;42.00;;;;;;;;4957426;28;45725;-79
2021/12/22 13:27:31;;;;;;;;;52.25;41.75;;;;;;;;4961280;28;45964;-79
2021/12/22 13:30:04;;;;;;;;;57.25;43.75;;;;;;;;4954510;28;45937;-78
2021/12/22 13:32:29;;;;;;;;;61.50;41.50;;;;;;;;4958636;28;45457;-79
2021/12/22 13:34:58;;;;;;;;;53.33;42.00;;;;;;;;4953406;28;45445;-78
2021/12/22 13:37:24;;;;;;;;;62.00;45.00;;;;;;;;4953406;28;45796;-79
2021/12/22 13:39:49;;;;;;;;;57.33;45.00;;;;;;;;4953994;28;45649;-78
2021/12/22 13:42:14;;;;;;;;;55.00;40.67;;;;;;;;4958868;28;45595;-79
2021/12/22 13:44:40;;;;;;;;;57.67;40.33;;;;;;;;4955197;28;47948;-79
2021/12/22 13:47:05;;;;;;;;;55.67;41.33;;;;;;;;4952685;28;45457;-78
2021/12/22 13:49:31;;;;;;;;;60.75;43.25;;;;;;;;4958095;28;46770;-79
2021/12/22 13:51:57;;;;;;;;;57.25;38.00;;;;;;;;4957009;28;45756;-78
2021/12/22 13:54:24;;;;;;;;;51.00;40.75;;;;;;;;4956370;28;45877;-78
2021/12/22 13:56:50;;;;;;;;;55.75;41.75;;;;;;;;4959172;28;45993;-79
2021/12/22 13:59:16;;;;;;;;;61.25;42.75;;;;;;;;4954123;28;45637;-77
2021/12/22 14:01:46;;;;;;;;;62.00;44.50;;;;;;;;4962006;28;45319;-79
2021/12/22 14:04:14;;;;;;;;;56.50;40.50;;;;;;;;4973232;28;45418;-78
2021/12/22 14:06:39;;;;;;;;;44.75;40.50;;;;;;;;4965399;28;45926;-79
2021/12/22 14:09:07;;;;;;;;;54.33;38.00;;;;;;;;4952592;28;45777;-78
2021/12/22 14:11:37;;;;;;;;;60.00;43.25;;;;;;;;4952279;28;45619;-78
2021/12/22 14:14:19;;;;;;;;;57.50;40.75;;;;;;;;4950974;28;47946;-79
2021/12/22 14:16:45;;;;;;;;;53.75;44.50;;;;;;;;4953535;28;45759;-79
2021/12/22 14:19:17;;;;;;;;;57.50;43.25;;;;;;;;4954084;28;45552;-79
2021/12/22 14:21:43;;;;;;;;;53.25;39.50;;;;;;;;4952243;28;45677;-79
2021/12/22 14:24:09;;;;;;;;;53.50;40.75;;;;;;;;4955308;28;45585;-79
2021/12/22 14:26:34;;;;;;;;;57.25;42.25;;;;;;;;4958707;28;45491;-78
2021/12/22 14:29:06;;;;;;;;;39.67;33.67;;;;;;;;4965887;28;45462;-79
2021/12/22 14:31:33;;;;;;;;;50.00;41.00;;;;;;;;4969783;28;45529;-79
2021/12/22 14:34:08;;;;;;;;;61.50;45.50;;;;;;;;4964671;28;45340;-78
2021/12/22 14:36:42;;;;;;;;;60.00;41.75;;;;;;;;4964670;28;45606;-79
2021/12/22 14:39:08;;;;;;;;;66.50;45.50;;;;;;;;4967121;28;45465;-80
2021/12/22 14:41:33;;;;;;;;;57.00;42.75;;;;;;;;4952429;28;45482;-79
2021/12/22 14:43:58;;;;;;;;;62.00;44.33;;;;;;;;4963105;28;45594;-79
2021/12/22 14:46:34;;;;;;;;;61.67;45.00;;;;;;;;4956830;28;45746;-79